Terminal Aerodrome Forecast
Issued by NWS

Home | Current Version | Previous Version | Text Only | Print | Product List | Glossary On
Versions: 1 2 3 4 5 6 7 8 9 10 11 12 13
000
FTUS45 KRIW 310500
TAFLND
TAF
KLND 310523Z 3106/0106 VRB05KT P6SM SCT130
     FM311900 18008KT P6SM SCT130
     FM010500 18006KT P6SM BKN150=

USA.gov is the U.S. government's official web portal to all federal, state and local government web resources and services.